CheckWX is a tool to help pilots better visualize weather data.  It is not intended as a substitute for an official pre-flight weather briefing.

02:51:26 UTC

KGCY METAR
Greeneville-Greene County Municipal Airport
Greeneville, Tennessee, USA
Current

16 mins ago

KGCY 230235Z AUTO 16004KT 10SM SCT055 23/14 A3014 RMK A01
Observed
Sep-23 @ 02:35 UTC
Wind
  • 160° at 4 KTS
Visibility
10 SM
Flight Rules
VFR
Cloud Levels
  • Scattered at 5,500' AGL
Temperature
23°C / 73°F
Dewpoint
14°C / 57°F
Humidity
57%
Altimeter
30.14" Hg
Pressure
1020.62 hPa
Previous

36 mins ago

KGCY 230215Z AUTO 00000KT 10SM FEW060 23/14 A3014 RMK A01
Observed
Sep-23 @ 02:15 UTC
Visibility
10 SM
Flight Rules
VFR
Cloud Levels
  • Few at 6,000' AGL
Temperature
23°C / 73°F
Dewpoint
14°C / 57°F
Humidity
57%
Altimeter
30.14" Hg
Pressure
1020.62 hPa
Previous

56 mins ago

KGCY 230155Z AUTO VRB03KT 10SM CLR 24/14 A3013 RMK A01
Observed
Sep-23 @ 01:55 UTC
Wind
  • Variable at 3 KTS
Visibility
10 SM
Flight Rules
VFR
Cloud Levels
  • Clear skies
Temperature
24°C / 75°F
Dewpoint
14°C / 57°F
Humidity
54%
Altimeter
30.13" Hg
Pressure
1020.32 hPa